Blanchard, Oklahoma
Current Conditions -  °F | °C
As of 7:35 AM on Friday 19 Dec 2014 (Local Time) from KOUN Reporting Station
Haze Haze  
Wind Chill: 34°   Ceiling: 400
Heat Index: 37°   Visibility: 2.5mi
Dew Point: 37°   Wind: 5mph
Humidity: 100%   Direction: 20°NNE
Pressure: 30.24"   Gusts: NA
Location:  35.14°N, 97.66°W
Report Text: KOUN 191335Z AUTO 02004KT 2 1/2SM BR OVC004 03/03 A3024 RMK AO2
Loading
Personal Weather Stations






























Interactive Weather Map New forecast layout! Learn more

10-Day Weather Forecast

Advertisements
Track Severe Weather on mobile